PILOTS ONLINE: 662    ATC ONLINE: 99

SBUG

Rubem Berta Airport

Location

IATA URG
City Uruguaiana
Country  Brazil
Latitude 29° 46' 55" S
Longitude 57° 2' 17" W
Elevation 256 ft
Type Medium Airport

Map

Weather

METAR
2014/09/20 16:00
SBUG 201600Z 19015KT 9999 FEW033 23/12 Q1017
TAF
2014/09/20 18:54
TAF SBUG 201500Z 2018/2118 18008KT CAVOK TX24/2018Z TN12/2108Z PROB40 2106/2112 4000 BR NSC 
      BECMG 2112/2114 15005KT 
      RMK PEL

Runways

4/22 2625 ft / 164 ft
9/27 4921 ft / 98 ft

Outbound flights

Callsign Flying to Pilot ATD/STD ETA Aircraft

Inbound flights

Callsign Flying from Pilot ATD ETA Aircraft